createdAt,value
2018-09-27T00:01:33.013Z,9.05
2018-09-27T00:04:00.606Z,9.01
2018-09-27T00:06:28.210Z,8.97
2018-09-27T00:08:55.790Z,8.90
2018-09-27T00:11:23.382Z,8.89
2018-09-27T00:13:51.250Z,8.91
2018-09-27T00:16:18.834Z,8.79
2018-09-27T00:18:46.506Z,8.68
2018-09-27T00:21:14.122Z,8.65
2018-09-27T00:23:41.724Z,8.50
2018-09-27T00:26:09.562Z,8.50
2018-09-27T00:28:37.165Z,8.53
2018-09-27T00:31:04.786Z,8.66
2018-09-27T00:33:32.409Z,8.64
2018-09-27T00:35:59.984Z,8.66
2018-09-27T00:38:27.754Z,8.47
2018-09-27T00:40:55.346Z,8.39
2018-09-27T00:43:22.917Z,8.42
2018-09-27T00:45:51.240Z,8.38
2018-09-27T00:48:18.870Z,8.41
2018-09-27T00:50:46.970Z,8.43
2018-09-27T00:53:14.542Z,8.42
2018-09-27T00:55:42.167Z,8.40
2018-09-27T00:58:10.259Z,8.42
2018-09-27T01:00:38.222Z,8.39
2018-09-27T01:03:05.809Z,8.40
2018-09-27T01:05:33.426Z,8.33
2018-09-27T01:08:00.995Z,8.20
2018-09-27T01:10:28.530Z,8.34
2018-09-27T01:12:56.040Z,8.19
2018-09-27T01:15:23.602Z,8.12
2018-09-27T01:17:51.365Z,8.07
2018-09-27T01:20:18.888Z,8.03
2018-09-27T01:22:46.438Z,8.02
2018-09-27T01:25:14.002Z,8.13
2018-09-27T01:27:41.489Z,8.03
2018-09-27T01:30:09.039Z,7.92
2018-09-27T01:32:37.030Z,7.94
2018-09-27T01:35:04.515Z,8.11
2018-09-27T01:37:32.093Z,8.12
2018-09-27T01:40:00.199Z,8.18
2018-09-27T01:42:27.712Z,7.99
2018-09-27T01:44:55.213Z,7.86
2018-09-27T01:47:22.716Z,7.78
2018-09-27T01:49:50.228Z,7.75
2018-09-27T01:52:17.727Z,7.76
2018-09-27T01:54:45.243Z,7.78
2018-09-27T01:57:12.741Z,7.74
2018-09-27T01:59:41.003Z,7.67
2018-09-27T02:02:09.238Z,7.71
2018-09-27T02:04:36.746Z,7.75
2018-09-27T02:07:04.293Z,7.66
2018-09-27T02:09:31.855Z,7.61
2018-09-27T02:11:59.370Z,7.60
2018-09-27T02:14:26.881Z,7.60
2018-09-27T02:16:54.389Z,7.55
2018-09-27T02:19:21.907Z,7.55
2018-09-27T02:21:49.391Z,7.53
2018-09-27T02:24:16.910Z,7.51
2018-09-27T02:26:44.455Z,7.57
2018-09-27T02:29:11.940Z,7.51
2018-09-27T02:31:39.451Z,7.51
2018-09-27T02:34:07.022Z,7.50
2018-09-27T02:36:34.578Z,7.48
2018-09-27T02:39:02.317Z,7.49
2018-09-27T02:41:29.838Z,7.42
2018-09-27T02:43:57.331Z,7.43
2018-09-27T02:46:24.867Z,7.42
2018-09-27T02:48:52.391Z,7.43
2018-09-27T02:51:19.898Z,7.45
2018-09-27T02:53:47.418Z,7.43
2018-09-27T02:56:14.983Z,7.37
2018-09-27T02:58:42.499Z,7.40
2018-09-27T03:01:10.249Z,7.41
2018-09-27T03:03:37.796Z,7.38
2018-09-27T03:06:05.408Z,7.31
2018-09-27T03:08:33.511Z,7.28
2018-09-27T03:11:01.023Z,7.25
2018-09-27T03:13:28.530Z,7.22
2018-09-27T03:15:56.054Z,7.12
2018-09-27T03:18:23.655Z,7.21
2018-09-27T03:20:51.200Z,7.23
2018-09-27T03:23:18.695Z,7.50
2018-09-27T03:25:46.495Z,7.61
2018-09-27T03:28:13.998Z,7.53
2018-09-27T03:30:41.494Z,7.37
2018-09-27T03:33:09.009Z,7.19
2018-09-27T03:35:36.535Z,7.19
2018-09-27T03:38:04.404Z,7.10
2018-09-27T03:40:31.969Z,7.03
2018-09-27T03:42:59.445Z,6.96
2018-09-27T03:45:27.028Z,7.06
2018-09-27T03:47:54.663Z,7.11
2018-09-27T03:50:22.138Z,7.04
2018-09-27T03:52:49.809Z,7.00
2018-09-27T03:55:17.306Z,6.92
2018-09-27T03:57:44.827Z,6.97
2018-09-27T04:00:12.362Z,6.94
2018-09-27T04:02:39.886Z,6.94
2018-09-27T04:05:07.398Z,6.81
2018-09-27T04:07:34.890Z,7.01
2018-09-27T04:10:02.407Z,7.09
2018-09-27T04:12:29.950Z,7.01
2018-09-27T04:14:57.441Z,6.90
2018-09-27T04:17:24.947Z,6.94
2018-09-27T04:19:52.451Z,6.86
2018-09-27T04:22:20.681Z,6.77
2018-09-27T04:24:48.530Z,6.89
2018-09-27T04:27:16.030Z,7.03
2018-09-27T04:29:43.530Z,6.99
2018-09-27T04:32:11.367Z,6.93
2018-09-27T04:34:38.877Z,6.90
2018-09-27T04:37:06.473Z,6.84
2018-09-27T04:39:34.022Z,6.93
2018-09-27T04:42:01.580Z,7.12
2018-09-27T04:44:29.078Z,7.12
2018-09-27T04:46:56.980Z,6.96
2018-09-27T04:49:24.501Z,6.91
2018-09-27T04:51:52.021Z,6.85
2018-09-27T04:54:20.629Z,6.85
2018-09-27T04:56:48.094Z,6.84
2018-09-27T04:59:15.645Z,6.82
2018-09-27T05:01:43.151Z,6.78
2018-09-27T05:04:10.814Z,6.77
2018-09-27T05:06:38.339Z,6.78
2018-09-27T05:09:06.331Z,6.77
2018-09-27T05:11:33.854Z,6.79
2018-09-27T05:14:01.432Z,6.80
2018-09-27T05:16:28.984Z,6.80
2018-09-27T05:18:56.586Z,6.79
2018-09-27T05:21:24.162Z,6.83
2018-09-27T05:23:51.679Z,6.82
2018-09-27T05:26:19.169Z,6.76
2018-09-27T05:28:46.671Z,6.63
2018-09-27T05:31:14.182Z,6.65
2018-09-27T05:33:41.787Z,6.67
2018-09-27T05:36:09.271Z,6.65
2018-09-27T05:38:36.817Z,6.73
2018-09-27T05:41:04.320Z,6.84
2018-09-27T05:43:31.838Z,6.77
2018-09-27T05:45:59.418Z,6.77
2018-09-27T05:48:26.911Z,6.95
2018-09-27T05:50:54.425Z,7.03
2018-09-27T05:53:22.069Z,7.22
2018-09-27T05:55:49.609Z,7.57
2018-09-27T05:58:17.499Z,7.90
2018-09-27T06:00:45.066Z,8.24
2018-09-27T06:03:12.594Z,8.61
2018-09-27T06:05:40.119Z,8.96
2018-09-27T06:08:07.634Z,9.34
2018-09-27T06:10:35.211Z,9.74
2018-09-27T06:13:02.752Z,9.97
2018-09-27T06:15:30.265Z,10.39
2018-09-27T06:17:58.078Z,10.86
2018-09-27T06:20:25.564Z,11.36
2018-09-27T06:22:53.072Z,11.79
2018-09-27T06:25:20.601Z,12.17
2018-09-27T06:27:48.091Z,12.45
2018-09-27T06:30:15.612Z,12.66
2018-09-27T06:32:43.126Z,12.94
2018-09-27T06:35:11.013Z,13.01
2018-09-27T06:37:38.442Z,12.90
2018-09-27T06:40:06.188Z,13.00
2018-09-27T06:42:33.715Z,13.33
2018-09-27T06:45:01.214Z,13.87
2018-09-27T06:47:28.722Z,14.13
2018-09-27T06:49:56.247Z,13.93
2018-09-27T06:52:23.775Z,14.08
2018-09-27T06:54:51.399Z,13.99
2018-09-27T06:57:18.843Z,13.79
2018-09-27T06:59:46.362Z,14.06
2018-09-27T07:02:13.878Z,14.08
2018-09-27T07:04:41.454Z,14.18
2018-09-27T07:07:09.004Z,14.70
2018-09-27T07:09:36.503Z,14.87
2018-09-27T07:12:04.098Z,15.06
2018-09-27T07:14:31.593Z,15.47
2018-09-27T07:16:59.127Z,16.12
2018-09-27T07:19:26.590Z,17.17
2018-09-27T07:21:54.081Z,18.17
2018-09-27T07:24:21.903Z,18.91
2018-09-27T07:26:49.950Z,19.04
2018-09-27T07:29:17.278Z,20.50
2018-09-27T07:31:44.828Z,20.77
2018-09-27T07:34:12.326Z,21.41
2018-09-27T07:36:39.883Z,22.03
2018-09-27T07:39:08.414Z,23.34
2018-09-27T07:41:35.898Z,23.97
2018-09-27T07:44:03.418Z,24.33
2018-09-27T07:46:30.934Z,24.53
2018-09-27T07:48:58.435Z,23.96
2018-09-27T07:51:25.929Z,24.68
2018-09-27T07:53:53.704Z,24.95
2018-09-27T07:56:21.205Z,24.67
2018-09-27T07:58:48.696Z,25.71
2018-09-27T08:01:16.231Z,26.35
2018-09-27T08:03:43.790Z,27.45
2018-09-27T08:06:11.353Z,28.07
2018-09-27T08:08:38.893Z,27.63
2018-09-27T08:11:06.517Z,27.58
2018-09-27T08:13:34.028Z,28.79
2018-09-27T08:16:02.155Z,28.56
2018-09-27T08:18:29.670Z,29.49
2018-09-27T08:20:57.440Z,29.76
2018-09-27T08:23:24.894Z,30.91
2018-09-27T08:25:52.413Z,31.67
2018-09-27T08:28:19.991Z,32.42
2018-09-27T08:30:47.574Z,33.46
2018-09-27T08:33:15.063Z,33.66
2018-09-27T08:35:42.590Z,33.31
2018-09-27T08:38:10.149Z,34.47
2018-09-27T08:40:37.662Z,34.99
2018-09-27T08:43:05.178Z,35.70
2018-09-27T08:45:32.870Z,36.02
2018-09-27T08:48:00.281Z,35.54
2018-09-27T08:50:27.944Z,36.20
2018-09-27T08:52:55.518Z,36.27
2018-09-27T08:55:23.166Z,35.73
2018-09-27T08:57:50.694Z,36.03
2018-09-27T09:00:18.279Z,34.71
2018-09-27T09:02:45.854Z,35.47
2018-09-27T09:05:13.419Z,36.35
2018-09-27T09:07:41.033Z,35.43
2018-09-27T09:10:08.574Z,35.39
2018-09-27T09:12:36.276Z,35.80
2018-09-27T09:15:03.891Z,35.05
2018-09-27T09:17:31.431Z,35.02
2018-09-27T09:19:58.998Z,34.70
2018-09-27T09:22:26.566Z,35.25
2018-09-27T09:24:54.091Z,35.11
2018-09-27T09:27:21.643Z,34.99
2018-09-27T09:29:49.344Z,35.30
2018-09-27T09:32:16.816Z,36.90
2018-09-27T09:34:44.349Z,36.17
2018-09-27T09:37:11.889Z,36.55
2018-09-27T09:39:39.454Z,37.07
2018-09-27T09:42:07.323Z,37.91
2018-09-27T09:44:34.864Z,36.73
2018-09-27T09:47:02.469Z,36.61
2018-09-27T09:49:30.068Z,36.09
2018-09-27T09:51:57.990Z,36.08
2018-09-27T09:54:25.678Z,35.70
2018-09-27T09:56:53.226Z,36.65
2018-09-27T09:59:20.900Z,36.13
2018-09-27T10:01:48.413Z,37.00
2018-09-27T10:04:15.999Z,36.77
2018-09-27T10:06:43.735Z,37.20
2018-09-27T10:09:11.699Z,36.24
2018-09-27T10:11:39.279Z,35.98
2018-09-27T10:14:07.350Z,36.65
2018-09-27T10:16:35.286Z,37.57
2018-09-27T10:19:02.814Z,36.41
2018-09-27T10:21:30.440Z,37.05
2018-09-27T10:23:57.959Z,36.27
2018-09-27T10:26:25.520Z,36.45
2018-09-27T10:28:53.106Z,36.53
2018-09-27T10:31:20.745Z,36.18
2018-09-27T10:33:48.286Z,36.33
2018-09-27T10:36:15.826Z,37.29
2018-09-27T10:38:43.430Z,37.75
2018-09-27T10:41:11.214Z,38.37
2018-09-27T10:43:39.038Z,37.60
2018-09-27T10:46:06.626Z,37.33
2018-09-27T10:48:34.490Z,37.78
2018-09-27T10:51:02.141Z,37.62
2018-09-27T10:53:29.706Z,36.48
2018-09-27T10:55:57.354Z,35.07
2018-09-27T10:58:24.929Z,34.67
2018-09-27T11:00:52.538Z,34.12
2018-09-27T11:03:20.127Z,33.39
2018-09-27T11:05:47.693Z,32.54
2018-09-27T11:08:15.249Z,31.22
2018-09-27T11:10:42.869Z,30.67
2018-09-27T11:13:10.432Z,29.60
2018-09-27T11:15:37.974Z,29.62
2018-09-27T11:18:05.607Z,28.85
2018-09-27T11:20:33.149Z,28.62
2018-09-27T11:23:00.918Z,28.88
2018-09-27T11:25:28.502Z,29.06
2018-09-27T11:27:56.041Z,28.46
2018-09-27T11:30:29.362Z,28.30
2018-09-27T11:32:56.911Z,28.40
2018-09-27T11:35:24.593Z,28.39
2018-09-27T11:37:52.131Z,28.12
2018-09-27T11:40:19.683Z,28.17
2018-09-27T11:42:47.362Z,27.83
2018-09-27T11:45:14.901Z,27.62
2018-09-27T11:47:42.474Z,27.78
2018-09-27T11:50:10.159Z,27.45
2018-09-27T11:52:38.173Z,27.47
2018-09-27T11:55:05.862Z,27.33
2018-09-27T11:57:33.429Z,27.28
2018-09-27T12:00:01.000Z,27.37
2018-09-27T12:02:28.536Z,27.39
2018-09-27T12:04:56.126Z,27.19
2018-09-27T12:07:23.736Z,26.86
2018-09-27T12:09:51.262Z,26.27
2018-09-27T12:12:21.258Z,26.21
2018-09-27T12:14:48.835Z,26.23
2018-09-27T12:17:16.410Z,26.07
2018-09-27T12:19:44.015Z,26.07
2018-09-27T12:22:11.571Z,26.04
2018-09-27T12:24:39.157Z,26.10
2018-09-27T12:27:06.727Z,26.20
2018-09-27T12:29:34.390Z,25.98
2018-09-27T12:32:02.552Z,25.83
2018-09-27T12:34:30.115Z,25.80
2018-09-27T12:36:57.757Z,25.82
2018-09-27T12:39:25.300Z,25.71
2018-09-27T12:41:52.866Z,25.59
2018-09-27T12:44:20.742Z,25.45
2018-09-27T12:46:48.324Z,25.33
2018-09-27T12:49:15.817Z,25.30
2018-09-27T12:51:43.480Z,25.17
2018-09-27T12:54:10.965Z,25.35
2018-09-27T12:56:39.055Z,25.32
2018-09-27T12:59:06.850Z,25.19
2018-09-27T13:01:34.502Z,25.16
2018-09-27T13:04:02.018Z,25.21
2018-09-27T13:06:29.549Z,25.08
2018-09-27T13:08:57.135Z,25.08
2018-09-27T13:11:24.626Z,25.13
2018-09-27T13:13:52.192Z,24.93
2018-09-27T13:16:19.746Z,24.96
2018-09-27T13:18:47.294Z,24.85
2018-09-27T13:21:14.886Z,24.90
2018-09-27T13:23:42.435Z,24.76
2018-09-27T13:26:09.979Z,24.72
2018-09-27T13:28:37.573Z,24.72
2018-09-27T13:31:05.377Z,24.78
2018-09-27T13:33:32.955Z,24.75
2018-09-27T13:36:00.552Z,24.71
2018-09-27T13:38:28.092Z,24.78
2018-09-27T13:40:55.793Z,24.68
2018-09-27T13:43:23.338Z,24.49
2018-09-27T13:45:50.925Z,24.58
2018-09-27T13:48:18.539Z,24.46
2018-09-27T13:50:46.140Z,24.44
2018-09-27T13:53:13.706Z,24.56
2018-09-27T13:55:41.254Z,24.54
2018-09-27T13:58:08.804Z,24.57
2018-09-27T14:00:36.384Z,24.49
2018-09-27T14:03:04.332Z,24.51
2018-09-27T14:05:31.976Z,24.48
2018-09-27T14:07:59.505Z,24.37
2018-09-27T14:10:27.047Z,24.21
2018-09-27T14:12:54.613Z,24.15
2018-09-27T14:15:22.303Z,24.02
2018-09-27T14:17:49.860Z,24.11
2018-09-27T14:20:17.466Z,24.02
2018-09-27T14:22:45.010Z,24.09
2018-09-27T14:25:12.578Z,23.99
2018-09-27T14:27:40.134Z,23.99
2018-09-27T14:30:08.651Z,23.90
2018-09-27T14:32:36.391Z,23.90
2018-09-27T14:35:03.931Z,23.92
2018-09-27T14:37:31.466Z,23.92
2018-09-27T14:39:59.034Z,23.75
2018-09-27T14:42:26.589Z,23.87
2018-09-27T14:44:54.157Z,23.92
2018-09-27T14:47:21.731Z,23.77
2018-09-27T14:49:49.344Z,23.58
2018-09-27T14:52:16.908Z,23.57
2018-09-27T14:54:44.536Z,23.64
2018-09-27T14:57:12.083Z,23.74
2018-09-27T14:59:39.742Z,23.78
2018-09-27T15:02:07.264Z,23.69
2018-09-27T15:04:34.879Z,23.44
2018-09-27T15:07:02.400Z,23.41
2018-09-27T15:09:30.038Z,23.37
2018-09-27T15:11:57.531Z,23.22
2018-09-27T15:14:25.168Z,23.39
2018-09-27T15:16:52.711Z,23.42
2018-09-27T15:19:20.337Z,23.44
2018-09-27T15:21:47.922Z,23.38
2018-09-27T15:24:15.498Z,23.32
2018-09-27T15:26:43.063Z,23.08
2018-09-27T15:29:10.614Z,23.11
2018-09-27T15:31:38.151Z,23.09
2018-09-27T15:34:05.755Z,23.10
2018-09-27T15:36:33.377Z,23.17
2018-09-27T15:39:00.955Z,23.12
2018-09-27T15:41:28.864Z,22.89
2018-09-27T15:43:56.465Z,22.82
2018-09-27T15:46:24.063Z,22.89
2018-09-27T15:48:51.610Z,22.93
2018-09-27T15:51:19.248Z,22.89
2018-09-27T15:53:46.828Z,22.95
2018-09-27T15:56:14.411Z,22.74
2018-09-27T15:58:42.295Z,22.72
2018-09-27T16:01:09.781Z,22.68
2018-09-27T16:03:37.349Z,22.57
2018-09-27T16:06:05.283Z,22.65
2018-09-27T16:08:32.840Z,22.59
2018-09-27T16:11:00.419Z,22.60
2018-09-27T16:13:28.026Z,22.65
2018-09-27T16:15:55.750Z,22.50
2018-09-27T16:18:23.348Z,22.37
2018-09-27T16:20:50.915Z,22.27
2018-09-27T16:23:18.520Z,22.22
2018-09-27T16:25:46.090Z,22.24
2018-09-27T16:28:13.714Z,22.08
2018-09-27T16:30:41.723Z,22.05
2018-09-27T16:33:09.262Z,22.08
2018-09-27T16:35:37.694Z,22.09
2018-09-27T16:38:05.336Z,22.00
2018-09-27T16:40:33.686Z,21.90
2018-09-27T16:43:01.232Z,21.86
2018-09-27T16:45:28.777Z,21.78
2018-09-27T16:47:56.548Z,21.61
2018-09-27T16:50:24.122Z,21.59
2018-09-27T16:52:51.714Z,21.59
2018-09-27T16:55:19.305Z,21.66
2018-09-27T16:57:47.004Z,21.88
2018-09-27T17:00:14.949Z,21.85
2018-09-27T17:02:42.524Z,21.80
2018-09-27T17:05:10.138Z,21.48
2018-09-27T17:07:37.760Z,21.31
2018-09-27T17:10:05.593Z,21.16
2018-09-27T17:12:33.179Z,20.76
2018-09-27T17:15:00.722Z,20.66
2018-09-27T17:17:28.514Z,20.45
2018-09-27T17:19:56.151Z,20.25
2018-09-27T17:22:23.763Z,20.33
2018-09-27T17:24:51.336Z,20.20
2018-09-27T17:27:18.892Z,20.01
2018-09-27T17:29:46.488Z,19.95
2018-09-27T17:32:14.061Z,19.92
2018-09-27T17:34:41.654Z,19.86
2018-09-27T17:37:09.506Z,19.82
2018-09-27T17:39:37.078Z,19.70
2018-09-27T17:42:04.634Z,19.48
2018-09-27T17:44:32.211Z,19.18
2018-09-27T17:46:59.795Z,18.94
2018-09-27T17:49:27.432Z,18.79
2018-09-27T17:51:54.973Z,18.68
2018-09-27T17:54:22.558Z,18.55
2018-09-27T17:56:50.131Z,18.52
2018-09-27T17:59:17.743Z,18.39
2018-09-27T18:01:45.405Z,18.28
2018-09-27T18:04:12.956Z,18.02
2018-09-27T18:06:40.546Z,17.84
2018-09-27T18:09:08.633Z,17.80
2018-09-27T18:11:36.360Z,17.75
2018-09-27T18:14:03.957Z,17.68
2018-09-27T18:16:31.570Z,17.83
2018-09-27T18:18:59.109Z,18.00
2018-09-27T18:21:26.727Z,17.91
2018-09-27T18:23:54.327Z,17.68
2018-09-27T18:26:22.101Z,17.48
2018-09-27T18:28:49.723Z,17.29
2018-09-27T18:31:17.317Z,17.24
2018-09-27T18:33:44.882Z,17.37
2018-09-27T18:36:12.488Z,17.55
2018-09-27T18:38:40.278Z,17.41
2018-09-27T18:41:07.867Z,17.20
2018-09-27T18:43:35.446Z,17.07
2018-09-27T18:46:03.099Z,16.87
2018-09-27T18:48:30.689Z,16.74
2018-09-27T18:50:58.293Z,16.51
2018-09-27T18:53:25.899Z,16.37
2018-09-27T18:55:53.472Z,16.10
2018-09-27T18:58:21.035Z,15.92
2018-09-27T19:00:48.687Z,15.86
2018-09-27T19:03:16.304Z,15.83
2018-09-27T19:05:43.883Z,15.70
2018-09-27T19:08:11.463Z,15.66
2018-09-27T19:10:39.066Z,15.69
2018-09-27T19:13:06.646Z,15.66
2018-09-27T19:15:34.226Z,15.63
2018-09-27T19:18:01.823Z,15.59
2018-09-27T19:20:29.415Z,15.47
2018-09-27T19:22:57.226Z,15.43
2018-09-27T19:25:24.798Z,15.38
2018-09-27T19:27:52.346Z,15.32
2018-09-27T19:30:19.958Z,15.28
2018-09-27T19:32:47.524Z,15.18
2018-09-27T19:35:15.270Z,15.24
2018-09-27T19:37:42.827Z,15.08
2018-09-27T19:40:10.439Z,15.05
2018-09-27T19:42:38.684Z,14.82
2018-09-27T19:45:06.230Z,14.89
2018-09-27T19:47:33.784Z,14.72
2018-09-27T19:50:01.431Z,14.82
2018-09-27T19:52:28.995Z,14.74
2018-09-27T19:54:56.595Z,14.71
2018-09-27T19:57:24.166Z,14.64
2018-09-27T19:59:51.763Z,14.48
2018-09-27T20:02:19.389Z,14.61
2018-09-27T20:04:46.961Z,14.51
2018-09-27T20:07:14.489Z,14.39
2018-09-27T20:09:42.080Z,14.20
2018-09-27T20:12:09.623Z,14.20
2018-09-27T20:14:37.454Z,14.18
2018-09-27T20:17:05.139Z,14.15
2018-09-27T20:19:32.692Z,14.11
2018-09-27T20:22:00.302Z,14.06
2018-09-27T20:24:28.083Z,14.12
2018-09-27T20:26:55.631Z,14.05
2018-09-27T20:29:23.186Z,14.02
2018-09-27T20:31:50.779Z,14.02
2018-09-27T20:34:18.422Z,14.10
2018-09-27T20:36:46.189Z,13.93
2018-09-27T20:39:13.747Z,13.87
2018-09-27T20:41:41.345Z,13.84
2018-09-27T20:44:08.934Z,13.75
2018-09-27T20:46:36.621Z,13.78
2018-09-27T20:49:04.266Z,13.73
2018-09-27T20:51:31.930Z,13.73
2018-09-27T20:53:59.518Z,13.69
2018-09-27T20:56:27.237Z,13.88
2018-09-27T20:58:54.843Z,14.08
2018-09-27T21:01:22.422Z,14.10
2018-09-27T21:03:50.015Z,13.97
2018-09-27T21:06:17.603Z,13.69
2018-09-27T21:08:45.420Z,13.66
2018-09-27T21:11:12.989Z,13.75
2018-09-27T21:13:40.487Z,13.59
2018-09-27T21:16:08.051Z,13.45
2018-09-27T21:18:35.599Z,13.44
2018-09-27T21:21:03.218Z,13.43
2018-09-27T21:23:30.791Z,13.44
2018-09-27T21:25:58.333Z,13.47
2018-09-27T21:28:25.873Z,13.47
2018-09-27T21:30:53.462Z,13.33
2018-09-27T21:33:21.234Z,13.51
2018-09-27T21:35:48.810Z,13.43
2018-09-27T21:38:16.792Z,13.35
2018-09-27T21:40:44.344Z,13.13
2018-09-27T21:43:11.926Z,12.92
2018-09-27T21:45:39.436Z,12.97
2018-09-27T21:48:06.989Z,12.98
2018-09-27T21:50:34.514Z,12.94
2018-09-27T21:53:02.047Z,12.69
2018-09-27T21:55:29.573Z,12.57
2018-09-27T21:57:57.141Z,12.58
2018-09-27T22:00:24.966Z,12.61
2018-09-27T22:02:52.483Z,12.61
2018-09-27T22:05:20.081Z,12.56
2018-09-27T22:07:47.659Z,12.52
2018-09-27T22:10:15.210Z,12.63
2018-09-27T22:12:42.731Z,12.52
2018-09-27T22:15:10.270Z,12.57
2018-09-27T22:17:37.810Z,12.54
2018-09-27T22:20:05.730Z,12.43
2018-09-27T22:22:33.263Z,12.44
2018-09-27T22:25:00.794Z,12.39
2018-09-27T22:27:28.350Z,12.39
2018-09-27T22:29:55.885Z,12.28
2018-09-27T22:32:23.422Z,12.22
2018-09-27T22:34:51.009Z,12.29
2018-09-27T22:37:18.621Z,12.27
2018-09-27T22:39:46.175Z,12.12
2018-09-27T22:42:13.778Z,12.12
2018-09-27T22:44:41.430Z,12.29
2018-09-27T22:47:08.938Z,12.26
2018-09-27T22:49:36.699Z,12.13
2018-09-27T22:52:04.254Z,12.09
2018-09-27T22:54:31.786Z,12.08
2018-09-27T22:56:59.330Z,11.98
2018-09-27T22:59:26.845Z,11.96
2018-09-27T23:01:54.419Z,11.93
2018-09-27T23:04:22.008Z,11.82
2018-09-27T23:06:49.688Z,11.69
2018-09-27T23:09:17.203Z,11.80
2018-09-27T23:11:44.855Z,11.92
2018-09-27T23:14:12.387Z,11.69
2018-09-27T23:16:39.904Z,11.64
2018-09-27T23:19:07.454Z,11.60
2018-09-27T23:21:34.969Z,11.61
2018-09-27T23:24:02.494Z,11.80
2018-09-27T23:26:30.053Z,11.82
2018-09-27T23:28:57.860Z,11.82
2018-09-27T23:31:25.807Z,11.72
2018-09-27T23:33:53.366Z,11.70
2018-09-27T23:36:20.971Z,11.68
2018-09-27T23:38:48.539Z,11.53
2018-09-27T23:41:16.058Z,11.47
2018-09-27T23:43:43.690Z,11.60
2018-09-27T23:46:11.615Z,11.85
2018-09-27T23:48:39.206Z,11.79
2018-09-27T23:51:06.767Z,11.84
2018-09-27T23:53:34.585Z,11.82
2018-09-27T23:56:02.118Z,11.80
2018-09-27T23:58:29.677Z,11.81
